Blandford, Massachusetts
Current Conditions -  °F | °C
As of 4:53 PM on Friday 24 Oct 2014 (Local Time) from KBAF Reporting Station
Overcast Overcast  
Wind Chill: 52°   Ceiling: 3000
Heat Index: 52°   Visibility: 10mi
Dew Point: 41°   Wind: 9mph
Humidity: 66%   Direction: 360°N
Pressure: 29.75"   Gusts: NA
Location:  42.18°N, 72.93°W
Report Text: KBAF 242053Z 36008KT 10SM OVC030 11/05 A2975 RMK AO2 PK WND 34027/1958 SLP078 T01110050 53008
Loading
Personal Weather Stations






























Interactive Weather Map
Tropical Storm Tracking
New forecast layout! Learn more

10-Day Weather Forecast

Advertisements
Track Severe Weather on mobile